Terminal Aerodrome Forecast
Issued by NWS Sterling, VA

Home | Current Version | Previous Version | Text Only | Print | Product List | Glossary On
Versions: 1 2 3 4 5 6 7 8 9 10 11 12 13 14 15 16 17 18 19 20 21 22 23 24 25 26 27
759
FTUS41 KLWX 220533
TAFCHO
TAF
KCHO 220533Z 2206/2306 VRB03KT 1/4SM -DZ FG OVC002
     FM221500 06004KT 1SM -DZ BR OVC003
     FM221800 06005KT 5SM -RADZ BKN008 OVC015=

USA.gov is the U.S. government's official web portal to all federal, state and local government web resources and services.